SKSM/SMR METAR and TAF weather

Enter ICAO airport designator
Station Type Date Time Source
SKSM METAR 2022/01/26 20:00 UTC NOAA

SKSM 262000Z 01012KT 9999 FEW020 34/22 Q1009 RMK A2980


Station Type Date Time Source
SKSM Decoded METAR 2022/01/26 20:00 UTC NOAA

Santa Marta / Simon Bolivar, Colombia (SKSM) 11-08N 074-14W 14M
Jan 26, 2022 - 03:00 PM EST / 2022.01.26 2000 UTC
Wind: from the N (010 degrees) at 14 MPH (12 KT):0
Visibility: greater than 7 mile(s):0
Sky conditions: mostly clear
Temperature: 93 F (34 C)
Heat index: 100.0 F (37.8 C):1
Dew Point: 71 F (22 C)
Relative Humidity: 49%
Pressure (altimeter): 29.80 in. Hg (1009 hPa)
ob: SKSM 262000Z 01012KT 9999 FEW020 34/22 Q1009 RMK A2980
cycle: 20

Station Type Date Time Source
SKSM TAF UTC NOAA

Error!

Example: see airport list